Anthem, Arizona
Current Conditions -  °F | °C
As of 4:53 PM on Sunday 25 Jan 2015 (Local Time) from KDVT Reporting Station
Clear Clear  
Wind Chill: 74°   Ceiling: Unl
Heat Index: 74°   Visibility: 10mi
Dew Point: 22°   Wind: 5mph
Humidity: 14%   Direction: 230°SW
Pressure: 30.02"   Gusts: NA
Location:  33.8348°N, 112.071°W
Report Text: KDVT 252353Z AUTO 23004KT 10SM CLR 23/M06 A3002 RMK AO2 SLP153 T02331056 10239 20183 56004
Loading
Personal Weather Stations






























Interactive Weather Map New forecast layout! Learn more

10-Day Weather Forecast

Advertisements
Track Severe Weather on mobile